sensor_id;sensor_type;location;lat;lon;timestamp;temperature;humidity
51011;DHT22;37038;50.182;8.624;2024-03-23T00:55:30;8.20;6.20
51011;DHT22;37038;50.182;8.624;2024-03-23T01:02:08;8.50;1.00
51011;DHT22;37038;50.182;8.624;2024-03-23T01:05:04;8.60;1.00
51011;DHT22;37038;50.182;8.624;2024-03-23T01:11:02;8.40;25.70
51011;DHT22;37038;50.182;8.624;2024-03-23T01:13:58;8.70;24.90
51011;DHT22;37038;50.182;8.624;2024-03-23T01:17:09;8.70;1.00
51011;DHT22;37038;50.182;8.624;2024-03-23T01:20:17;8.40;48.60
51011;DHT22;37038;50.182;8.624;2024-03-23T01:23:10;8.60;99.90
51011;DHT22;37038;50.182;8.624;2024-03-23T01:26:02;9.00;1.00
51011;DHT22;37038;50.182;8.624;2024-03-23T01:28:59;8.60;1.00
51011;DHT22;37038;50.182;8.624;2024-03-23T01:31:57;8.60;49.80
51011;DHT22;37038;50.182;8.624;2024-03-23T01:35:24;8.90;29.90
51011;DHT22;37038;50.182;8.624;2024-03-23T01:38:24;9.40;1.00
51011;DHT22;37038;50.182;8.624;2024-03-23T01:41:24;9.40;1.00
51011;DHT22;37038;50.182;8.624;2024-03-23T01:44:15;9.50;1.00
51011;DHT22;37038;50.182;8.624;2024-03-23T01:47:22;9.50;99.90
51011;DHT22;37038;50.182;8.624;2024-03-23T01:50:13;9.60;1.00
51011;DHT22;37038;50.182;8.624;2024-03-23T01:53:34;9.40;99.90
51011;DHT22;37038;50.182;8.624;2024-03-23T01:56:25;9.10;1.00
51011;DHT22;37038;50.182;8.624;2024-03-23T01:59:29;9.20;1.00
51011;DHT22;37038;50.182;8.624;2024-03-23T02:02:49;8.80;1.00
51011;DHT22;37038;50.182;8.624;2024-03-23T02:05:49;8.30;1.00
51011;DHT22;37038;50.182;8.624;2024-03-23T02:09:14;8.60;64.00
51011;DHT22;37038;50.182;8.624;2024-03-23T02:12:13;8.50;1.00
51011;DHT22;37038;50.182;8.624;2024-03-23T02:15:20;8.50;1.00
51011;DHT22;37038;50.182;8.624;2024-03-23T02:18:35;8.60;1.00
51011;DHT22;37038;50.182;8.624;2024-03-23T02:21:33;8.60;1.00
51011;DHT22;37038;50.182;8.624;2024-03-23T02:24:44;8.40;97.20
51011;DHT22;37038;50.182;8.624;2024-03-23T02:28:09;8.40;1.00
51011;DHT22;37038;50.182;8.624;2024-03-23T02:31:06;8.30;99.90
51011;DHT22;37038;50.182;8.624;2024-03-23T02:34:21;8.20;99.90
51011;DHT22;37038;50.182;8.624;2024-03-23T02:37:20;8.40;99.90
51011;DHT22;37038;50.182;8.624;2024-03-23T02:40:19;8.50;71.10
51011;DHT22;37038;50.182;8.624;2024-03-23T02:43:12;8.60;96.10
51011;DHT22;37038;50.182;8.624;2024-03-23T02:49:50;9.20;1.00
51011;DHT22;37038;50.182;8.624;2024-03-23T02:52:53;9.50;1.00
51011;DHT22;37038;50.182;8.624;2024-03-23T02:56:04;9.60;1.00
51011;DHT22;37038;50.182;8.624;2024-03-23T02:59:02;9.10;1.00
51011;DHT22;37038;50.182;8.624;2024-03-23T03:01:53;9.10;1.00
51011;DHT22;37038;50.182;8.624;2024-03-23T03:04:45;9.00;1.00
51011;DHT22;37038;50.182;8.624;2024-03-23T03:07:41;8.80;1.00
51011;DHT22;37038;50.182;8.624;2024-03-23T03:10:34;8.70;1.00
51011;DHT22;37038;50.182;8.624;2024-03-23T03:13:26;8.70;1.00
51011;DHT22;37038;50.182;8.624;2024-03-23T03:16:17;9.10;1.00
51011;DHT22;37038;50.182;8.624;2024-03-23T03:19:22;9.20;1.00
51011;DHT22;37038;50.182;8.624;2024-03-23T03:22:22;9.60;1.00
51011;DHT22;37038;50.182;8.624;2024-03-23T03:25:09;9.30;1.00
51011;DHT22;37038;50.182;8.624;2024-03-23T03:28:10;9.10;1.00
51011;DHT22;37038;50.182;8.624;2024-03-23T03:31:00;8.90;1.00
51011;DHT22;37038;50.182;8.624;2024-03-23T03:33:53;8.80;1.00
51011;DHT22;37038;50.182;8.624;2024-03-23T03:36:47;9.30;1.00
51011;DHT22;37038;50.182;8.624;2024-03-23T03:39:43;9.60;1.00
51011;DHT22;37038;50.182;8.624;2024-03-23T03:42:49;9.60;1.00
51011;DHT22;37038;50.182;8.624;2024-03-23T03:45:51;9.30;1.00
51011;DHT22;37038;50.182;8.624;2024-03-23T03:48:45;9.20;1.00
51011;DHT22;37038;50.182;8.624;2024-03-23T03:51:39;9.00;1.00
51011;DHT22;37038;50.182;8.624;2024-03-23T03:54:32;8.80;1.00
51011;DHT22;37038;50.182;8.624;2024-03-23T04:00:25;8.90;1.00
51011;DHT22;37038;50.182;8.624;2024-03-23T04:03:16;8.70;1.00
51011;DHT22;37038;50.182;8.624;2024-03-23T04:09:29;8.10;99.90
51011;DHT22;37038;50.182;8.624;2024-03-23T04:12:48;7.80;99.90
51011;DHT22;37038;50.182;8.624;2024-03-23T04:16:00;8.50;99.90
51011;DHT22;37038;50.182;8.624;2024-03-23T04:22:38;8.30;99.90
51011;DHT22;37038;50.182;8.624;2024-03-23T04:25:32;8.00;99.90
51011;DHT22;37038;50.182;8.624;2024-03-23T04:28:33;7.90;99.90
51011;DHT22;37038;50.182;8.624;2024-03-23T04:31:22;7.80;99.90
51011;DHT22;37038;50.182;8.624;2024-03-23T04:34:53;7.50;99.90
51011;DHT22;37038;50.182;8.624;2024-03-23T04:38:01;7.30;99.90
51011;DHT22;37038;50.182;8.624;2024-03-23T04:44:24;7.20;99.90
51011;DHT22;37038;50.182;8.624;2024-03-23T04:47:11;7.10;99.90
51011;DHT22;37038;50.182;8.624;2024-03-23T04:50:01;7.00;99.90
51011;DHT22;37038;50.182;8.624;2024-03-23T04:52:54;7.00;99.90
51011;DHT22;37038;50.182;8.624;2024-03-23T04:55:51;7.00;99.90
51011;DHT22;37038;50.182;8.624;2024-03-23T04:58:44;7.00;99.90
51011;DHT22;37038;50.182;8.624;2024-03-23T05:01:41;7.00;99.90
51011;DHT22;37038;50.182;8.624;2024-03-23T05:04:49;6.90;94.90
51011;DHT22;37038;50.182;8.624;2024-03-23T05:08:01;6.90;55.90
51011;DHT22;37038;50.182;8.624;2024-03-23T05:11:09;6.90;70.70
51011;DHT22;37038;50.182;8.624;2024-03-23T05:17:47;6.90;53.20
51011;DHT22;37038;50.182;8.624;2024-03-23T05:29:46;6.90;57.40
51011;DHT22;37038;50.182;8.624;2024-03-23T05:32:39;6.90;55.10
51011;DHT22;37038;50.182;8.624;2024-03-23T05:36:05;6.90;1.00
51011;DHT22;37038;50.182;8.624;2024-03-23T05:38:58;7.00;1.00
51011;DHT22;37038;50.182;8.624;2024-03-23T05:42:05;7.00;1.00
51011;DHT22;37038;50.182;8.624;2024-03-23T05:45:04;7.00;1.00
51011;DHT22;37038;50.182;8.624;2024-03-23T05:47:58;7.00;1.00
51011;DHT22;37038;50.182;8.624;2024-03-23T05:51:12;7.00;1.00
51011;DHT22;37038;50.182;8.624;2024-03-23T05:54:14;7.00;1.00
51011;DHT22;37038;50.182;8.624;2024-03-23T05:57:13;7.00;1.00
51011;DHT22;37038;50.182;8.624;2024-03-23T06:00:17;6.90;1.00
51011;DHT22;37038;50.182;8.624;2024-03-23T06:03:11;6.90;1.00
51011;DHT22;37038;50.182;8.624;2024-03-23T06:06:05;6.90;1.00
51011;DHT22;37038;50.182;8.624;2024-03-23T06:09:06;6.80;1.00
51011;DHT22;37038;50.182;8.624;2024-03-23T06:12:05;6.70;1.00
51011;DHT22;37038;50.182;8.624;2024-03-23T06:14:52;6.70;1.00
51011;DHT22;37038;50.182;8.624;2024-03-23T06:17:39;6.70;1.00
51011;DHT22;37038;50.182;8.624;2024-03-23T06:20:35;6.70;1.00
51011;DHT22;37038;50.182;8.624;2024-03-23T06:23:26;6.70;1.00
51011;DHT22;37038;50.182;8.624;2024-03-23T06:26:19;6.70;1.00
51011;DHT22;37038;50.182;8.624;2024-03-23T06:29:16;6.70;1.00
51011;DHT22;37038;50.182;8.624;2024-03-23T06:32:27;6.60;1.00
51011;DHT22;37038;50.182;8.624;2024-03-23T06:35:15;6.60;1.00
51011;DHT22;37038;50.182;8.624;2024-03-23T06:38:13;6.60;1.00
51011;DHT22;37038;50.182;8.624;2024-03-23T06:41:08;6.60;1.00
51011;DHT22;37038;50.182;8.624;2024-03-23T06:44:02;6.50;1.00
51011;DHT22;37038;50.182;8.624;2024-03-23T06:47:09;6.40;1.00
51011;DHT22;37038;50.182;8.624;2024-03-23T06:50:10;6.50;99.90
51011;DHT22;37038;50.182;8.624;2024-03-23T06:52:57;6.50;1.00
51011;DHT22;37038;50.182;8.624;2024-03-23T06:56:21;6.40;1.00
51011;DHT22;37038;50.182;8.624;2024-03-23T06:59:08;6.50;1.00
51011;DHT22;37038;50.182;8.624;2024-03-23T07:02:26;6.60;99.90
51011;DHT22;37038;50.182;8.624;2024-03-23T07:09:06;6.70;99.90
51011;DHT22;37038;50.182;8.624;2024-03-23T07:18:31;6.80;1.00
51011;DHT22;37038;50.182;8.624;2024-03-23T07:21:40;6.80;99.90
51011;DHT22;37038;50.182;8.624;2024-03-23T07:24:33;6.50;99.90
51011;DHT22;37038;50.182;8.624;2024-03-23T07:27:30;6.70;99.90
51011;DHT22;37038;50.182;8.624;2024-03-23T07:31:28;6.90;1.00
51011;DHT22;37038;50.182;8.624;2024-03-23T07:34:48;6.70;1.00
51011;DHT22;37038;50.182;8.624;2024-03-23T07:41:38;6.70;1.00
51011;DHT22;37038;50.182;8.624;2024-03-23T07:44:50;6.90;99.90
51011;DHT22;37038;50.182;8.624;2024-03-23T07:47:37;7.10;1.00
51011;DHT22;37038;50.182;8.624;2024-03-23T07:50:32;6.70;1.00
51011;DHT22;37038;50.182;8.624;2024-03-23T07:53:19;6.70;99.90
51011;DHT22;37038;50.182;8.624;2024-03-23T07:56:15;6.70;99.90
51011;DHT22;37038;50.182;8.624;2024-03-23T07:59:39;6.50;99.90
51011;DHT22;37038;50.182;8.624;2024-03-23T08:02:41;6.50;99.90
51011;DHT22;37038;50.182;8.624;2024-03-23T08:05:53;6.60;1.00
51011;DHT22;37038;50.182;8.624;2024-03-23T08:09:01;6.60;1.00
51011;DHT22;37038;50.182;8.624;2024-03-23T08:12:28;6.90;99.90
51011;DHT22;37038;50.182;8.624;2024-03-23T08:16:00;7.00;1.00
51011;DHT22;37038;50.182;8.624;2024-03-23T08:18:53;8.10;1.00
51011;DHT22;37038;50.182;8.624;2024-03-23T08:22:03;8.10;1.00
51011;DHT22;37038;50.182;8.624;2024-03-23T08:25:11;8.00;1.00
51011;DHT22;37038;50.182;8.624;2024-03-23T08:28:58;7.60;1.00
51011;DHT22;37038;50.182;8.624;2024-03-23T08:32:09;7.80;49.30
51011;DHT22;37038;50.182;8.624;2024-03-23T08:35:09;7.20;1.00
51011;DHT22;37038;50.182;8.624;2024-03-23T08:45:46;8.10;1.00
51011;DHT22;37038;50.182;8.624;2024-03-23T08:48:56;8.80;99.90
51011;DHT22;37038;50.182;8.624;2024-03-23T08:51:43;7.70;1.00
51011;DHT22;37038;50.182;8.624;2024-03-23T08:54:57;8.10;1.00
51011;DHT22;37038;50.182;8.624;2024-03-23T08:58:10;8.40;99.90
51011;DHT22;37038;50.182;8.624;2024-03-23T09:01:15;8.00;1.00
51011;DHT22;37038;50.182;8.624;2024-03-23T09:04:09;8.00;1.00
51011;DHT22;37038;50.182;8.624;2024-03-23T09:07:32;8.20;99.90
51011;DHT22;37038;50.182;8.624;2024-03-23T09:10:19;8.40;79.20
51011;DHT22;37038;50.182;8.624;2024-03-23T09:13:24;8.40;1.00
51011;DHT22;37038;50.182;8.624;2024-03-23T09:16:16;7.90;1.00
51011;DHT22;37038;50.182;8.624;2024-03-23T09:19:11;7.80;99.90
51011;DHT22;37038;50.182;8.624;2024-03-23T09:22:30;8.00;1.00
51011;DHT22;37038;50.182;8.624;2024-03-23T09:26:03;8.00;1.00
51011;DHT22;37038;50.182;8.624;2024-03-23T09:28:50;8.50;99.90
51011;DHT22;37038;50.182;8.624;2024-03-23T09:31:37;9.30;1.00
51011;DHT22;37038;50.182;8.624;2024-03-23T09:34:25;9.40;99.90
51011;DHT22;37038;50.182;8.624;2024-03-23T09:37:13;9.80;99.90
51011;DHT22;37038;50.182;8.624;2024-03-23T09:40:00;9.50;99.90
51011;DHT22;37038;50.182;8.624;2024-03-23T09:42:51;10.10;99.90
51011;DHT22;37038;50.182;8.624;2024-03-23T09:45:41;9.60;99.90
51011;DHT22;37038;50.182;8.624;2024-03-23T09:48:29;9.20;99.90
51011;DHT22;37038;50.182;8.624;2024-03-23T09:51:19;9.60;99.90
51011;DHT22;37038;50.182;8.624;2024-03-23T09:54:07;9.70;99.90
51011;DHT22;37038;50.182;8.624;2024-03-23T09:56:54;9.60;99.90
51011;DHT22;37038;50.182;8.624;2024-03-23T09:59:43;9.30;99.90
51011;DHT22;37038;50.182;8.624;2024-03-23T10:02:30;9.60;1.00
51011;DHT22;37038;50.182;8.624;2024-03-23T10:05:23;10.00;99.90
51011;DHT22;37038;50.182;8.624;2024-03-23T10:11:16;10.00;99.90
51011;DHT22;37038;50.182;8.624;2024-03-23T10:14:03;9.60;99.90
51011;DHT22;37038;50.182;8.624;2024-03-23T10:16:50;9.50;1.00
51011;DHT22;37038;50.182;8.624;2024-03-23T10:19:38;9.80;66.50
51011;DHT22;37038;50.182;8.624;2024-03-23T10:22:31;10.40;24.70
51011;DHT22;37038;50.182;8.624;2024-03-23T10:25:26;11.70;99.90
51011;DHT22;37038;50.182;8.624;2024-03-23T10:28:14;11.00;99.90
51011;DHT22;37038;50.182;8.624;2024-03-23T10:31:11;11.10;99.90
51011;DHT22;37038;50.182;8.624;2024-03-23T10:33:59;12.10;99.90
51011;DHT22;37038;50.182;8.624;2024-03-23T10:36:48;12.30;1.00
51011;DHT22;37038;50.182;8.624;2024-03-23T10:39:39;11.30;1.00
51011;DHT22;37038;50.182;8.624;2024-03-23T10:42:27;13.00;99.90
51011;DHT22;37038;50.182;8.624;2024-03-23T10:45:14;11.70;99.90
51011;DHT22;37038;50.182;8.624;2024-03-23T10:48:04;10.60;1.00
51011;DHT22;37038;50.182;8.624;2024-03-23T10:50:57;9.80;99.90
51011;DHT22;37038;50.182;8.624;2024-03-23T10:53:45;10.00;99.90
51011;DHT22;37038;50.182;8.624;2024-03-23T10:56:35;9.80;99.90
51011;DHT22;37038;50.182;8.624;2024-03-23T10:59:23;9.20;1.00
51011;DHT22;37038;50.182;8.624;2024-03-23T11:02:23;7.10;1.00
51011;DHT22;37038;50.182;8.624;2024-03-23T11:05:34;6.30;23.40
51011;DHT22;37038;50.182;8.624;2024-03-23T11:08:38;5.80;1.00
51011;DHT22;37038;50.182;8.624;2024-03-23T11:11:25;6.10;1.00
51011;DHT22;37038;50.182;8.624;2024-03-23T11:14:22;6.80;99.90
51011;DHT22;37038;50.182;8.624;2024-03-23T11:17:18;7.20;99.90
51011;DHT22;37038;50.182;8.624;2024-03-23T11:20:06;7.30;99.90
51011;DHT22;37038;50.182;8.624;2024-03-23T11:22:59;7.70;1.00
51011;DHT22;37038;50.182;8.624;2024-03-23T11:25:46;7.80;99.90
51011;DHT22;37038;50.182;8.624;2024-03-23T11:28:33;8.10;1.00
51011;DHT22;37038;50.182;8.624;2024-03-23T11:31:20;7.90;99.90
51011;DHT22;37038;50.182;8.624;2024-03-23T11:34:12;8.00;99.90
51011;DHT22;37038;50.182;8.624;2024-03-23T11:37:05;8.10;99.90
51011;DHT22;37038;50.182;8.624;2024-03-23T11:39:53;7.80;1.00
51011;DHT22;37038;50.182;8.624;2024-03-23T11:42:47;8.00;91.20
51011;DHT22;37038;50.182;8.624;2024-03-23T11:45:51;8.60;1.00
51011;DHT22;37038;50.182;8.624;2024-03-23T11:48:50;8.90;1.00
51011;DHT22;37038;50.182;8.624;2024-03-23T11:51:50;8.20;1.00
51011;DHT22;37038;50.182;8.624;2024-03-23T11:54:43;8.40;1.00
51011;DHT22;37038;50.182;8.624;2024-03-23T11:57:31;9.10;1.00
51011;DHT22;37038;50.182;8.624;2024-03-23T12:00:24;9.90;99.90
51011;DHT22;37038;50.182;8.624;2024-03-23T12:03:11;10.60;99.90
51011;DHT22;37038;50.182;8.624;2024-03-23T12:06:01;10.30;99.90
51011;DHT22;37038;50.182;8.624;2024-03-23T12:09:05;10.80;99.90
51011;DHT22;37038;50.182;8.624;2024-03-23T12:12:07;10.70;99.90
51011;DHT22;37038;50.182;8.624;2024-03-23T12:15:05;11.00;99.90
51011;DHT22;37038;50.182;8.624;2024-03-23T12:18:05;10.80;99.90
51011;DHT22;37038;50.182;8.624;2024-03-23T12:20:55;11.90;99.90
51011;DHT22;37038;50.182;8.624;2024-03-23T12:23:43;10.90;99.90
51011;DHT22;37038;50.182;8.624;2024-03-23T12:26:39;11.80;99.90
51011;DHT22;37038;50.182;8.624;2024-03-23T12:29:29;12.50;99.90
51011;DHT22;37038;50.182;8.624;2024-03-23T12:32:18;12.50;99.90
51011;DHT22;37038;50.182;8.624;2024-03-23T12:35:06;12.30;99.90
51011;DHT22;37038;50.182;8.624;2024-03-23T12:38:07;12.70;1.00
51011;DHT22;37038;50.182;8.624;2024-03-23T12:40:54;12.10;1.00
51011;DHT22;37038;50.182;8.624;2024-03-23T12:43:48;11.00;99.90
51011;DHT22;37038;50.182;8.624;2024-03-23T12:46:38;10.90;99.90
51011;DHT22;37038;50.182;8.624;2024-03-23T12:49:35;10.70;99.90
51011;DHT22;37038;50.182;8.624;2024-03-23T12:52:23;10.30;99.90
51011;DHT22;37038;50.182;8.624;2024-03-23T12:55:17;10.10;1.00
51011;DHT22;37038;50.182;8.624;2024-03-23T12:58:04;10.60;1.00
51011;DHT22;37038;50.182;8.624;2024-03-23T13:00:52;10.60;12.40
51011;DHT22;37038;50.182;8.624;2024-03-23T13:03:38;10.30;1.00
51011;DHT22;37038;50.182;8.624;2024-03-23T13:06:30;10.20;1.00
51011;DHT22;37038;50.182;8.624;2024-03-23T13:09:23;10.00;1.00
51011;DHT22;37038;50.182;8.624;2024-03-23T13:12:13;9.70;99.90
51011;DHT22;37038;50.182;8.624;2024-03-23T13:15:02;9.20;99.90
51011;DHT22;37038;50.182;8.624;2024-03-23T13:17:49;6.80;1.00
51011;DHT22;37038;50.182;8.624;2024-03-23T13:20:38;5.50;1.00
51011;DHT22;37038;50.182;8.624;2024-03-23T13:23:30;5.40;1.00
51011;DHT22;37038;50.182;8.624;2024-03-23T13:26:19;5.20;1.00
51011;DHT22;37038;50.182;8.624;2024-03-23T13:29:05;5.30;1.00
51011;DHT22;37038;50.182;8.624;2024-03-23T13:31:52;5.40;99.90
51011;DHT22;37038;50.182;8.624;2024-03-23T13:34:40;5.30;1.00
51011;DHT22;37038;50.182;8.624;2024-03-23T13:37:27;5.60;99.90
51011;DHT22;37038;50.182;8.624;2024-03-23T13:40:14;6.40;1.00
51011;DHT22;37038;50.182;8.624;2024-03-23T13:43:01;6.60;1.00
51011;DHT22;37038;50.182;8.624;2024-03-23T13:45:48;7.70;99.90
51011;DHT22;37038;50.182;8.624;2024-03-23T13:48:35;10.00;1.00
51011;DHT22;37038;50.182;8.624;2024-03-23T13:51:26;9.30;99.90
51011;DHT22;37038;50.182;8.624;2024-03-23T13:54:16;9.00;99.90
51011;DHT22;37038;50.182;8.624;2024-03-23T13:57:06;10.00;99.90
51011;DHT22;37038;50.182;8.624;2024-03-23T14:00:07;7.90;99.90
51011;DHT22;37038;50.182;8.624;2024-03-23T14:02:59;10.60;99.90
51011;DHT22;37038;50.182;8.624;2024-03-23T14:05:46;11.20;99.90
51011;DHT22;37038;50.182;8.624;2024-03-23T14:08:37;10.80;99.90
51011;DHT22;37038;50.182;8.624;2024-03-23T14:11:32;10.90;26.10
51011;DHT22;37038;50.182;8.624;2024-03-23T14:14:27;9.00;99.90
51011;DHT22;37038;50.182;8.624;2024-03-23T14:17:17;8.90;99.90
51011;DHT22;37038;50.182;8.624;2024-03-23T14:20:06;8.30;99.90
51011;DHT22;37038;50.182;8.624;2024-03-23T14:22:57;9.20;99.90
51011;DHT22;37038;50.182;8.624;2024-03-23T14:25:58;9.40;67.50
51011;DHT22;37038;50.182;8.624;2024-03-23T14:28:45;9.40;99.90
51011;DHT22;37038;50.182;8.624;2024-03-23T14:31:32;11.10;90.10
51011;DHT22;37038;50.182;8.624;2024-03-23T14:34:19;11.50;1.00
51011;DHT22;37038;50.182;8.624;2024-03-23T14:37:06;11.90;99.90
51011;DHT22;37038;50.182;8.624;2024-03-23T14:39:54;12.30;1.00
51011;DHT22;37038;50.182;8.624;2024-03-23T14:42:41;12.70;99.90
51011;DHT22;37038;50.182;8.624;2024-03-23T14:45:28;11.50;1.00
51011;DHT22;37038;50.182;8.624;2024-03-23T14:48:15;11.10;1.00
51011;DHT22;37038;50.182;8.624;2024-03-23T14:51:02;11.90;1.00
51011;DHT22;37038;50.182;8.624;2024-03-23T14:53:52;11.10;1.00
51011;DHT22;37038;50.182;8.624;2024-03-23T14:56:47;10.20;1.00
51011;DHT22;37038;50.182;8.624;2024-03-23T14:59:34;9.60;1.00
51011;DHT22;37038;50.182;8.624;2024-03-23T15:02:23;9.30;1.00
51011;DHT22;37038;50.182;8.624;2024-03-23T15:05:10;9.50;1.00
51011;DHT22;37038;50.182;8.624;2024-03-23T15:07:58;9.50;1.00
51011;DHT22;37038;50.182;8.624;2024-03-23T15:10:47;9.20;1.00
51011;DHT22;37038;50.182;8.624;2024-03-23T15:13:35;9.00;1.00
51011;DHT22;37038;50.182;8.624;2024-03-23T15:16:23;8.90;1.00
51011;DHT22;37038;50.182;8.624;2024-03-23T15:19:10;8.90;1.00
51011;DHT22;37038;50.182;8.624;2024-03-23T15:21:57;8.80;1.00
51011;DHT22;37038;50.182;8.624;2024-03-23T15:24:43;8.90;1.00
51011;DHT22;37038;50.182;8.624;2024-03-23T15:27:32;8.90;1.00
51011;DHT22;37038;50.182;8.624;2024-03-23T15:30:19;9.00;1.00
51011;DHT22;37038;50.182;8.624;2024-03-23T15:33:06;9.10;1.00
51011;DHT22;37038;50.182;8.624;2024-03-23T15:35:53;9.20;1.00
51011;DHT22;37038;50.182;8.624;2024-03-23T15:38:46;9.00;1.00
51011;DHT22;37038;50.182;8.624;2024-03-23T15:41:36;8.60;1.00
51011;DHT22;37038;50.182;8.624;2024-03-23T15:44:25;8.00;1.00
51011;DHT22;37038;50.182;8.624;2024-03-23T15:47:14;5.60;1.00
51011;DHT22;37038;50.182;8.624;2024-03-23T15:50:01;5.30;99.90
51011;DHT22;37038;50.182;8.624;2024-03-23T15:52:50;5.30;1.00
51011;DHT22;37038;50.182;8.624;2024-03-23T15:55:37;5.50;99.90
51011;DHT22;37038;50.182;8.624;2024-03-23T15:58:32;5.80;99.90
51011;DHT22;37038;50.182;8.624;2024-03-23T16:01:19;5.90;99.90
51011;DHT22;37038;50.182;8.624;2024-03-23T16:04:10;6.20;1.00
51011;DHT22;37038;50.182;8.624;2024-03-23T16:07:07;7.10;60.00
51011;DHT22;37038;50.182;8.624;2024-03-23T16:09:54;6.70;1.00
51011;DHT22;37038;50.182;8.624;2024-03-23T16:12:48;6.20;99.90
51011;DHT22;37038;50.182;8.624;2024-03-23T16:20:35;7.60;52.30
51011;DHT22;37038;50.182;8.624;2024-03-23T16:23:40;7.50;1.00
51011;DHT22;37038;50.182;8.624;2024-03-23T16:26:53;7.50;99.90
51011;DHT22;37038;50.182;8.624;2024-03-23T16:30:11;7.70;1.00
51011;DHT22;37038;50.182;8.624;2024-03-23T16:32:58;7.20;99.90
51011;DHT22;37038;50.182;8.624;2024-03-23T16:36:10;7.00;1.00
51011;DHT22;37038;50.182;8.624;2024-03-23T16:39:01;6.50;99.90
51011;DHT22;37038;50.182;8.624;2024-03-23T16:41:47;6.30;99.90
51011;DHT22;37038;50.182;8.624;2024-03-23T16:44:46;7.00;1.00
51011;DHT22;37038;50.182;8.624;2024-03-23T16:47:38;7.90;1.00
51011;DHT22;37038;50.182;8.624;2024-03-23T16:50:47;7.70;99.90
51011;DHT22;37038;50.182;8.624;2024-03-23T16:53:52;7.60;1.00
51011;DHT22;37038;50.182;8.624;2024-03-23T16:56:51;7.60;99.90
51011;DHT22;37038;50.182;8.624;2024-03-23T17:00:03;7.40;1.00
51011;DHT22;37038;50.182;8.624;2024-03-23T17:02:51;6.90;99.90
51011;DHT22;37038;50.182;8.624;2024-03-23T17:05:43;6.60;99.90
51011;DHT22;37038;50.182;8.624;2024-03-23T17:08:31;6.40;12.50
51011;DHT22;37038;50.182;8.624;2024-03-23T17:11:34;6.40;99.90
51011;DHT22;37038;50.182;8.624;2024-03-23T17:14:30;6.40;1.00
51011;DHT22;37038;50.182;8.624;2024-03-23T17:17:17;6.30;99.90
51011;DHT22;37038;50.182;8.624;2024-03-23T17:20:07;6.30;99.90
51011;DHT22;37038;50.182;8.624;2024-03-23T17:22:56;6.20;1.00
51011;DHT22;37038;50.182;8.624;2024-03-23T17:25:43;6.20;99.90
51011;DHT22;37038;50.182;8.624;2024-03-23T17:28:41;6.20;1.00
51011;DHT22;37038;50.182;8.624;2024-03-23T17:31:33;6.20;1.00
51011;DHT22;37038;50.182;8.624;2024-03-23T17:34:20;6.30;1.00
51011;DHT22;37038;50.182;8.624;2024-03-23T17:37:10;6.30;1.00
51011;DHT22;37038;50.182;8.624;2024-03-23T17:39:57;6.10;1.00
51011;DHT22;37038;50.182;8.624;2024-03-23T17:42:46;5.80;99.90
51011;DHT22;37038;50.182;8.624;2024-03-23T17:45:36;4.50;1.00
51011;DHT22;37038;50.182;8.624;2024-03-23T17:51:51;4.20;1.00
51011;DHT22;37038;50.182;8.624;2024-03-23T17:54:49;4.20;1.00
51011;DHT22;37038;50.182;8.624;2024-03-23T17:57:52;4.10;1.00
51011;DHT22;37038;50.182;8.624;2024-03-23T18:00:38;4.10;12.70
51011;DHT22;37038;50.182;8.624;2024-03-23T18:03:51;4.10;1.00
51011;DHT22;37038;50.182;8.624;2024-03-23T18:06:41;4.10;1.00
51011;DHT22;37038;50.182;8.624;2024-03-23T18:09:53;4.10;1.00
51011;DHT22;37038;50.182;8.624;2024-03-23T18:16:17;4.20;99.90
51011;DHT22;37038;50.182;8.624;2024-03-23T18:19:38;4.20;99.90
51011;DHT22;37038;50.182;8.624;2024-03-23T18:23:04;4.20;77.60
51011;DHT22;37038;50.182;8.624;2024-03-23T18:26:04;4.20;24.80
51011;DHT22;37038;50.182;8.624;2024-03-23T18:29:01;4.10;20.20
51011;DHT22;37038;50.182;8.624;2024-03-23T18:32:08;4.00;99.90
51011;DHT22;37038;50.182;8.624;2024-03-23T18:35:04;3.90;99.90
51011;DHT22;37038;50.182;8.624;2024-03-23T18:37:59;3.70;99.90
51011;DHT22;37038;50.182;8.624;2024-03-23T18:40:48;3.70;99.90
51011;DHT22;37038;50.182;8.624;2024-03-23T18:43:45;3.60;99.90
51011;DHT22;37038;50.182;8.624;2024-03-23T18:46:44;3.60;99.90
51011;DHT22;37038;50.182;8.624;2024-03-23T18:49:44;3.50;99.90
51011;DHT22;37038;50.182;8.624;2024-03-23T18:52:34;3.50;99.90
51011;DHT22;37038;50.182;8.624;2024-03-23T18:55:24;3.60;99.90
51011;DHT22;37038;50.182;8.624;2024-03-23T18:58:17;3.70;99.90
51011;DHT22;37038;50.182;8.624;2024-03-23T19:01:06;3.90;1.00
51011;DHT22;37038;50.182;8.624;2024-03-23T19:03:58;4.10;1.00
51011;DHT22;37038;50.182;8.624;2024-03-23T19:06:53;4.10;1.00
51011;DHT22;37038;50.182;8.624;2024-03-23T19:09:40;4.10;1.00
51011;DHT22;37038;50.182;8.624;2024-03-23T19:12:33;4.00;1.00
51011;DHT22;37038;50.182;8.624;2024-03-23T19:15:25;4.00;1.00
51011;DHT22;37038;50.182;8.624;2024-03-23T19:18:20;4.00;1.00
51011;DHT22;37038;50.182;8.624;2024-03-23T19:21:07;4.00;11.20
51011;DHT22;37038;50.182;8.624;2024-03-23T19:24:00;4.00;94.60
51011;DHT22;37038;50.182;8.624;2024-03-23T19:26:50;4.00;99.90
51011;DHT22;37038;50.182;8.624;2024-03-23T19:29:37;4.00;99.90
51011;DHT22;37038;50.182;8.624;2024-03-23T19:32:24;4.10;99.90
51011;DHT22;37038;50.182;8.624;2024-03-23T19:35:13;4.10;99.90
51011;DHT22;37038;50.182;8.624;2024-03-23T19:38:04;4.10;99.90
51011;DHT22;37038;50.182;8.624;2024-03-23T19:40:55;4.00;99.90
51011;DHT22;37038;50.182;8.624;2024-03-23T19:43:44;4.00;99.90
51011;DHT22;37038;50.182;8.624;2024-03-23T19:46:36;3.90;99.90
51011;DHT22;37038;50.182;8.624;2024-03-23T19:49:26;3.80;99.90
51011;DHT22;37038;50.182;8.624;2024-03-23T19:52:16;3.80;99.90
51011;DHT22;37038;50.182;8.624;2024-03-23T19:55:04;3.80;99.90
51011;DHT22;37038;50.182;8.624;2024-03-23T19:57:51;3.80;99.90
51011;DHT22;37038;50.182;8.624;2024-03-23T20:00:38;4.00;99.90
51011;DHT22;37038;50.182;8.624;2024-03-23T20:03:25;3.90;99.90
51011;DHT22;37038;50.182;8.624;2024-03-23T20:06:15;3.90;99.90
51011;DHT22;37038;50.182;8.624;2024-03-23T20:09:02;3.90;99.90
51011;DHT22;37038;50.182;8.624;2024-03-23T20:11:56;3.90;99.90
51011;DHT22;37038;50.182;8.624;2024-03-23T20:14:43;3.80;99.90
51011;DHT22;37038;50.182;8.624;2024-03-23T20:17:32;3.80;99.90
51011;DHT22;37038;50.182;8.624;2024-03-23T20:20:19;3.80;99.90
51011;DHT22;37038;50.182;8.624;2024-03-23T20:23:08;3.70;99.90
51011;DHT22;37038;50.182;8.624;2024-03-23T20:26:01;3.70;99.90
51011;DHT22;37038;50.182;8.624;2024-03-23T20:28:57;3.70;99.90
51011;DHT22;37038;50.182;8.624;2024-03-23T20:31:49;3.70;99.90
51011;DHT22;37038;50.182;8.624;2024-03-23T20:34:37;3.70;99.90
51011;DHT22;37038;50.182;8.624;2024-03-23T20:37:24;3.70;99.90
51011;DHT22;37038;50.182;8.624;2024-03-23T20:40:11;3.60;99.90
51011;DHT22;37038;50.182;8.624;2024-03-23T20:43:07;3.60;99.90
51011;DHT22;37038;50.182;8.624;2024-03-23T20:46:00;3.60;99.90
51011;DHT22;37038;50.182;8.624;2024-03-23T20:48:47;3.60;99.90
51011;DHT22;37038;50.182;8.624;2024-03-23T20:51:38;3.60;99.90
51011;DHT22;37038;50.182;8.624;2024-03-23T20:54:41;3.60;99.90
51011;DHT22;37038;50.182;8.624;2024-03-23T20:57:28;3.50;99.90
51011;DHT22;37038;50.182;8.624;2024-03-23T21:00:16;3.60;99.90
51011;DHT22;37038;50.182;8.624;2024-03-23T21:03:08;3.60;99.90